sensor_id;sensor_type;location;lat;lon;timestamp;P1;durP1;ratioP1;P2;durP2;ratioP2
60714;SDS011;46564;53.096;8.246;2023-12-04T00:02:19;28.23;;;13.13;;
60714;SDS011;46564;53.096;8.246;2023-12-04T00:07:21;32.70;;;14.05;;
60714;SDS011;46564;53.096;8.246;2023-12-04T00:12:22;32.72;;;14.35;;
60714;SDS011;46564;53.096;8.246;2023-12-04T00:17:23;32.50;;;14.70;;
60714;SDS011;46564;53.096;8.246;2023-12-04T00:22:25;32.53;;;15.85;;
60714;SDS011;46564;53.096;8.246;2023-12-04T00:27:26;34.72;;;13.77;;
60714;SDS011;46564;53.096;8.246;2023-12-04T00:32:28;33.42;;;13.93;;
60714;SDS011;46564;53.096;8.246;2023-12-04T00:37:29;30.77;;;13.02;;
60714;SDS011;46564;53.096;8.246;2023-12-04T00:42:31;34.10;;;15.27;;
60714;SDS011;46564;53.096;8.246;2023-12-04T00:47:32;36.42;;;15.18;;
60714;SDS011;46564;53.096;8.246;2023-12-04T00:52:34;37.72;;;15.98;;
60714;SDS011;46564;53.096;8.246;2023-12-04T00:57:35;32.88;;;14.77;;
60714;SDS011;46564;53.096;8.246;2023-12-04T01:02:36;31.90;;;14.50;;
60714;SDS011;46564;53.096;8.246;2023-12-04T01:07:38;39.25;;;15.90;;
60714;SDS011;46564;53.096;8.246;2023-12-04T01:12:39;35.00;;;15.32;;
60714;SDS011;46564;53.096;8.246;2023-12-04T01:17:40;42.58;;;18.02;;
60714;SDS011;46564;53.096;8.246;2023-12-04T01:22:42;39.42;;;16.25;;
60714;SDS011;46564;53.096;8.246;2023-12-04T01:27:43;36.92;;;15.07;;
60714;SDS011;46564;53.096;8.246;2023-12-04T01:32:44;38.50;;;17.40;;
60714;SDS011;46564;53.096;8.246;2023-12-04T01:37:46;41.20;;;16.88;;
60714;SDS011;46564;53.096;8.246;2023-12-04T01:42:47;39.88;;;16.00;;
60714;SDS011;46564;53.096;8.246;2023-12-04T01:47:49;39.22;;;16.45;;
60714;SDS011;46564;53.096;8.246;2023-12-04T01:52:51;36.65;;;16.05;;
60714;SDS011;46564;53.096;8.246;2023-12-04T01:57:53;35.28;;;14.60;;
60714;SDS011;46564;53.096;8.246;2023-12-04T02:02:54;34.33;;;15.02;;
60714;SDS011;46564;53.096;8.246;2023-12-04T02:07:56;28.38;;;11.73;;
60714;SDS011;46564;53.096;8.246;2023-12-04T02:12:57;36.67;;;15.30;;
60714;SDS011;46564;53.096;8.246;2023-12-04T02:17:58;37.30;;;15.35;;
60714;SDS011;46564;53.096;8.246;2023-12-04T02:23:00;32.70;;;13.02;;
60714;SDS011;46564;53.096;8.246;2023-12-04T02:28:04;36.08;;;14.90;;
60714;SDS011;46564;53.096;8.246;2023-12-04T02:33:06;35.83;;;14.27;;
60714;SDS011;46564;53.096;8.246;2023-12-04T02:38:09;33.05;;;13.45;;
60714;SDS011;46564;53.096;8.246;2023-12-04T02:43:10;31.13;;;13.73;;
60714;SDS011;46564;53.096;8.246;2023-12-04T02:48:12;30.27;;;13.63;;
60714;SDS011;46564;53.096;8.246;2023-12-04T02:53:13;36.63;;;13.90;;
60714;SDS011;46564;53.096;8.246;2023-12-04T02:58:14;28.40;;;12.25;;
60714;SDS011;46564;53.096;8.246;2023-12-04T03:03:16;32.05;;;13.35;;
60714;SDS011;46564;53.096;8.246;2023-12-04T03:08:17;32.25;;;13.32;;
60714;SDS011;46564;53.096;8.246;2023-12-04T03:13:18;29.55;;;12.95;;
60714;SDS011;46564;53.096;8.246;2023-12-04T03:18:20;36.00;;;13.73;;
60714;SDS011;46564;53.096;8.246;2023-12-04T03:23:21;30.27;;;13.05;;
60714;SDS011;46564;53.096;8.246;2023-12-04T03:28:22;31.33;;;12.82;;
60714;SDS011;46564;53.096;8.246;2023-12-04T03:33:24;29.27;;;14.05;;
60714;SDS011;46564;53.096;8.246;2023-12-04T03:38:25;32.65;;;13.40;;
60714;SDS011;46564;53.096;8.246;2023-12-04T03:43:26;34.40;;;14.35;;
60714;SDS011;46564;53.096;8.246;2023-12-04T03:48:27;33.20;;;14.40;;
60714;SDS011;46564;53.096;8.246;2023-12-04T03:53:29;33.25;;;13.93;;
60714;SDS011;46564;53.096;8.246;2023-12-04T03:58:30;34.85;;;13.30;;
60714;SDS011;46564;53.096;8.246;2023-12-04T04:03:32;33.45;;;13.18;;
60714;SDS011;46564;53.096;8.246;2023-12-04T04:08:34;28.33;;;12.65;;
60714;SDS011;46564;53.096;8.246;2023-12-04T04:13:35;31.50;;;12.45;;
60714;SDS011;46564;53.096;8.246;2023-12-04T04:18:37;31.77;;;14.48;;
60714;SDS011;46564;53.096;8.246;2023-12-04T04:23:39;32.50;;;13.95;;
60714;SDS011;46564;53.096;8.246;2023-12-04T04:28:40;35.67;;;14.18;;
60714;SDS011;46564;53.096;8.246;2023-12-04T04:33:41;31.92;;;13.40;;
60714;SDS011;46564;53.096;8.246;2023-12-04T04:38:43;33.05;;;15.68;;
60714;SDS011;46564;53.096;8.246;2023-12-04T04:43:44;32.78;;;14.23;;
60714;SDS011;46564;53.096;8.246;2023-12-04T04:48:45;33.97;;;14.00;;
60714;SDS011;46564;53.096;8.246;2023-12-04T04:53:47;33.65;;;14.90;;
60714;SDS011;46564;53.096;8.246;2023-12-04T04:58:48;29.05;;;13.10;;
60714;SDS011;46564;53.096;8.246;2023-12-04T05:03:53;31.58;;;13.95;;
60714;SDS011;46564;53.096;8.246;2023-12-04T05:08:55;36.53;;;15.00;;
60714;SDS011;46564;53.096;8.246;2023-12-04T05:13:56;30.23;;;13.23;;
60714;SDS011;46564;53.096;8.246;2023-12-04T05:18:58;31.95;;;13.77;;
60714;SDS011;46564;53.096;8.246;2023-12-04T05:23:59;31.75;;;13.45;;
60714;SDS011;46564;53.096;8.246;2023-12-04T05:29:00;31.27;;;12.75;;
60714;SDS011;46564;53.096;8.246;2023-12-04T05:34:01;30.15;;;13.40;;
60714;SDS011;46564;53.096;8.246;2023-12-04T05:39:03;32.45;;;12.98;;
60714;SDS011;46564;53.096;8.246;2023-12-04T05:44:05;30.17;;;13.70;;
60714;SDS011;46564;53.096;8.246;2023-12-04T05:49:06;34.08;;;14.20;;
60714;SDS011;46564;53.096;8.246;2023-12-04T05:54:07;31.27;;;13.73;;
60714;SDS011;46564;53.096;8.246;2023-12-04T05:59:09;31.65;;;13.68;;
60714;SDS011;46564;53.096;8.246;2023-12-04T06:04:10;32.47;;;13.73;;
60714;SDS011;46564;53.096;8.246;2023-12-04T06:09:12;36.03;;;14.40;;
60714;SDS011;46564;53.096;8.246;2023-12-04T06:14:13;29.52;;;12.30;;
60714;SDS011;46564;53.096;8.246;2023-12-04T06:19:14;32.20;;;14.35;;
60714;SDS011;46564;53.096;8.246;2023-12-04T06:24:16;29.15;;;13.23;;
60714;SDS011;46564;53.096;8.246;2023-12-04T06:29:17;30.15;;;13.75;;
60714;SDS011;46564;53.096;8.246;2023-12-04T06:34:19;32.60;;;13.18;;
60714;SDS011;46564;53.096;8.246;2023-12-04T06:39:20;32.20;;;13.77;;
60714;SDS011;46564;53.096;8.246;2023-12-04T06:44:21;32.28;;;14.48;;
60714;SDS011;46564;53.096;8.246;2023-12-04T06:49:23;29.05;;;11.77;;
60714;SDS011;46564;53.096;8.246;2023-12-04T06:54:25;28.90;;;12.90;;
60714;SDS011;46564;53.096;8.246;2023-12-04T06:59:27;33.03;;;13.73;;
60714;SDS011;46564;53.096;8.246;2023-12-04T07:04:28;33.78;;;14.02;;
60714;SDS011;46564;53.096;8.246;2023-12-04T07:09:29;28.83;;;13.52;;
60714;SDS011;46564;53.096;8.246;2023-12-04T07:14:31;31.05;;;13.93;;
60714;SDS011;46564;53.096;8.246;2023-12-04T07:19:32;28.95;;;14.57;;
60714;SDS011;46564;53.096;8.246;2023-12-04T07:24:33;32.85;;;14.82;;
60714;SDS011;46564;53.096;8.246;2023-12-04T07:29:34;32.08;;;13.95;;
60714;SDS011;46564;53.096;8.246;2023-12-04T07:34:36;32.60;;;13.73;;
60714;SDS011;46564;53.096;8.246;2023-12-04T07:39:37;28.52;;;13.50;;
60714;SDS011;46564;53.096;8.246;2023-12-04T07:44:38;31.33;;;12.60;;
60714;SDS011;46564;53.096;8.246;2023-12-04T07:49:40;29.23;;;12.20;;
60714;SDS011;46564;53.096;8.246;2023-12-04T07:54:41;27.67;;;12.30;;
60714;SDS011;46564;53.096;8.246;2023-12-04T07:59:42;27.17;;;10.75;;
60714;SDS011;46564;53.096;8.246;2023-12-04T08:04:44;24.77;;;11.45;;
60714;SDS011;46564;53.096;8.246;2023-12-04T08:09:45;29.10;;;13.30;;
60714;SDS011;46564;53.096;8.246;2023-12-04T08:14:46;23.02;;;10.05;;
60714;SDS011;46564;53.096;8.246;2023-12-04T08:19:48;25.20;;;11.38;;
60714;SDS011;46564;53.096;8.246;2023-12-04T08:24:53;23.27;;;11.57;;
60714;SDS011;46564;53.096;8.246;2023-12-04T08:29:54;21.88;;;9.60;;
60714;SDS011;46564;53.096;8.246;2023-12-04T08:34:56;24.02;;;10.50;;
60714;SDS011;46564;53.096;8.246;2023-12-04T08:39:57;25.75;;;11.32;;
60714;SDS011;46564;53.096;8.246;2023-12-04T08:44:58;23.55;;;10.32;;
60714;SDS011;46564;53.096;8.246;2023-12-04T08:49:59;21.38;;;9.63;;
60714;SDS011;46564;53.096;8.246;2023-12-04T08:55:01;21.63;;;9.57;;
60714;SDS011;46564;53.096;8.246;2023-12-04T09:00:03;22.83;;;9.77;;
60714;SDS011;46564;53.096;8.246;2023-12-04T09:05:05;22.45;;;10.20;;
60714;SDS011;46564;53.096;8.246;2023-12-04T09:10:06;23.63;;;8.95;;
60714;SDS011;46564;53.096;8.246;2023-12-04T09:15:16;21.00;;;9.40;;
60714;SDS011;46564;53.096;8.246;2023-12-04T09:20:18;24.35;;;10.48;;
60714;SDS011;46564;53.096;8.246;2023-12-04T09:25:19;20.20;;;9.02;;
60714;SDS011;46564;53.096;8.246;2023-12-04T09:30:20;21.30;;;10.18;;
60714;SDS011;46564;53.096;8.246;2023-12-04T09:35:22;21.40;;;9.40;;
60714;SDS011;46564;53.096;8.246;2023-12-04T09:40:23;22.45;;;10.57;;
60714;SDS011;46564;53.096;8.246;2023-12-04T09:45:24;19.92;;;8.73;;
60714;SDS011;46564;53.096;8.246;2023-12-04T09:50:26;17.73;;;8.63;;
60714;SDS011;46564;53.096;8.246;2023-12-04T09:55:27;20.67;;;8.98;;
60714;SDS011;46564;53.096;8.246;2023-12-04T10:00:29;20.83;;;9.13;;
60714;SDS011;46564;53.096;8.246;2023-12-04T10:05:32;17.77;;;8.50;;
60714;SDS011;46564;53.096;8.246;2023-12-04T10:10:33;19.67;;;8.27;;
60714;SDS011;46564;53.096;8.246;2023-12-04T10:15:35;19.58;;;8.32;;
60714;SDS011;46564;53.096;8.246;2023-12-04T10:20:53;20.30;;;8.60;;
60714;SDS011;46564;53.096;8.246;2023-12-04T10:25:54;20.17;;;8.68;;
60714;SDS011;46564;53.096;8.246;2023-12-04T10:30:56;18.77;;;8.68;;
60714;SDS011;46564;53.096;8.246;2023-12-04T10:35:57;17.80;;;8.05;;
60714;SDS011;46564;53.096;8.246;2023-12-04T10:41:01;16.63;;;8.18;;
60714;SDS011;46564;53.096;8.246;2023-12-04T10:46:12;17.52;;;8.20;;
60714;SDS011;46564;53.096;8.246;2023-12-04T10:51:15;15.13;;;7.43;;
60714;SDS011;46564;53.096;8.246;2023-12-04T10:56:25;16.27;;;7.93;;
60714;SDS011;46564;53.096;8.246;2023-12-04T11:01:28;16.60;;;8.23;;
60714;SDS011;46564;53.096;8.246;2023-12-04T11:06:30;16.10;;;7.90;;
60714;SDS011;46564;53.096;8.246;2023-12-04T11:11:34;15.52;;;7.57;;
60714;SDS011;46564;53.096;8.246;2023-12-04T11:16:41;18.00;;;7.82;;
60714;SDS011;46564;53.096;8.246;2023-12-04T11:21:45;17.52;;;6.60;;
60714;SDS011;46564;53.096;8.246;2023-12-04T11:26:46;16.77;;;7.38;;
60714;SDS011;46564;53.096;8.246;2023-12-04T11:31:48;19.38;;;7.10;;
60714;SDS011;46564;53.096;8.246;2023-12-04T11:36:50;15.18;;;7.07;;
60714;SDS011;46564;53.096;8.246;2023-12-04T11:41:51;15.68;;;6.45;;
60714;SDS011;46564;53.096;8.246;2023-12-04T11:46:56;18.48;;;7.40;;
60714;SDS011;46564;53.096;8.246;2023-12-04T11:51:57;13.70;;;5.88;;
60714;SDS011;46564;53.096;8.246;2023-12-04T11:57:00;17.60;;;7.60;;
60714;SDS011;46564;53.096;8.246;2023-12-04T12:02:02;13.68;;;6.57;;
60714;SDS011;46564;53.096;8.246;2023-12-04T12:07:06;15.75;;;6.43;;
60714;SDS011;46564;53.096;8.246;2023-12-04T12:12:08;16.67;;;7.60;;
60714;SDS011;46564;53.096;8.246;2023-12-04T12:17:09;14.20;;;6.57;;
60714;SDS011;46564;53.096;8.246;2023-12-04T12:22:11;12.02;;;5.70;;
60714;SDS011;46564;53.096;8.246;2023-12-04T12:27:12;12.68;;;5.93;;
60714;SDS011;46564;53.096;8.246;2023-12-04T12:32:14;13.80;;;6.85;;
60714;SDS011;46564;53.096;8.246;2023-12-04T12:37:15;17.33;;;6.07;;
60714;SDS011;46564;53.096;8.246;2023-12-04T12:42:29;15.23;;;7.15;;
60714;SDS011;46564;53.096;8.246;2023-12-04T12:47:30;13.52;;;6.07;;
60714;SDS011;46564;53.096;8.246;2023-12-04T12:52:32;17.88;;;6.55;;
60714;SDS011;46564;53.096;8.246;2023-12-04T12:57:34;17.45;;;7.80;;
60714;SDS011;46564;53.096;8.246;2023-12-04T13:02:36;12.82;;;6.47;;
60714;SDS011;46564;53.096;8.246;2023-12-04T13:07:37;15.95;;;6.13;;
60714;SDS011;46564;53.096;8.246;2023-12-04T13:12:39;15.70;;;6.93;;
60714;SDS011;46564;53.096;8.246;2023-12-04T13:17:41;11.85;;;5.93;;
60714;SDS011;46564;53.096;8.246;2023-12-04T13:22:42;12.55;;;5.32;;
60714;SDS011;46564;53.096;8.246;2023-12-04T13:27:43;17.15;;;6.55;;
60714;SDS011;46564;53.096;8.246;2023-12-04T13:32:44;12.70;;;5.32;;
60714;SDS011;46564;53.096;8.246;2023-12-04T13:37:47;15.45;;;5.63;;
60714;SDS011;46564;53.096;8.246;2023-12-04T13:42:49;19.38;;;7.65;;
60714;SDS011;46564;53.096;8.246;2023-12-04T13:47:50;13.65;;;6.72;;
60714;SDS011;46564;53.096;8.246;2023-12-04T13:52:52;13.43;;;5.32;;
60714;SDS011;46564;53.096;8.246;2023-12-04T13:57:53;13.43;;;6.20;;
60714;SDS011;46564;53.096;8.246;2023-12-04T14:02:54;15.15;;;6.70;;
60714;SDS011;46564;53.096;8.246;2023-12-04T14:07:56;13.57;;;6.00;;
60714;SDS011;46564;53.096;8.246;2023-12-04T14:12:57;16.25;;;7.15;;
60714;SDS011;46564;53.096;8.246;2023-12-04T14:18:01;15.90;;;6.32;;
60714;SDS011;46564;53.096;8.246;2023-12-04T14:23:02;15.93;;;6.75;;
60714;SDS011;46564;53.096;8.246;2023-12-04T14:28:04;17.08;;;7.30;;
60714;SDS011;46564;53.096;8.246;2023-12-04T14:33:06;21.75;;;7.05;;
60714;SDS011;46564;53.096;8.246;2023-12-04T14:38:08;13.52;;;6.22;;
60714;SDS011;46564;53.096;8.246;2023-12-04T14:43:09;16.83;;;6.95;;
60714;SDS011;46564;53.096;8.246;2023-12-04T14:48:10;17.63;;;8.32;;
60714;SDS011;46564;53.096;8.246;2023-12-04T14:53:12;15.77;;;7.10;;
60714;SDS011;46564;53.096;8.246;2023-12-04T14:58:13;16.35;;;7.03;;
60714;SDS011;46564;53.096;8.246;2023-12-04T15:03:14;16.48;;;7.00;;
60714;SDS011;46564;53.096;8.246;2023-12-04T15:08:16;16.45;;;7.25;;
60714;SDS011;46564;53.096;8.246;2023-12-04T15:13:17;16.33;;;7.60;;
60714;SDS011;46564;53.096;8.246;2023-12-04T15:18:19;15.77;;;7.15;;
60714;SDS011;46564;53.096;8.246;2023-12-04T15:23:20;17.10;;;6.75;;
60714;SDS011;46564;53.096;8.246;2023-12-04T15:28:21;16.90;;;7.88;;
60714;SDS011;46564;53.096;8.246;2023-12-04T15:33:23;17.88;;;7.15;;
60714;SDS011;46564;53.096;8.246;2023-12-04T15:38:24;18.08;;;7.65;;
60714;SDS011;46564;53.096;8.246;2023-12-04T15:43:25;17.45;;;7.47;;
60714;SDS011;46564;53.096;8.246;2023-12-04T15:48:27;14.57;;;7.20;;
60714;SDS011;46564;53.096;8.246;2023-12-04T15:53:28;14.52;;;6.70;;
60714;SDS011;46564;53.096;8.246;2023-12-04T15:58:29;15.55;;;6.60;;
60714;SDS011;46564;53.096;8.246;2023-12-04T16:03:31;21.55;;;8.57;;
60714;SDS011;46564;53.096;8.246;2023-12-04T16:08:32;15.15;;;6.97;;
60714;SDS011;46564;53.096;8.246;2023-12-04T16:13:34;18.50;;;7.00;;
60714;SDS011;46564;53.096;8.246;2023-12-04T16:18:35;13.23;;;6.15;;
60714;SDS011;46564;53.096;8.246;2023-12-04T16:23:36;14.27;;;7.28;;
60714;SDS011;46564;53.096;8.246;2023-12-04T16:28:38;14.68;;;6.63;;
60714;SDS011;46564;53.096;8.246;2023-12-04T16:33:39;18.88;;;7.60;;
60714;SDS011;46564;53.096;8.246;2023-12-04T16:38:40;14.07;;;6.95;;
60714;SDS011;46564;53.096;8.246;2023-12-04T16:43:42;16.27;;;7.55;;
60714;SDS011;46564;53.096;8.246;2023-12-04T16:48:43;17.60;;;7.53;;
60714;SDS011;46564;53.096;8.246;2023-12-04T16:53:44;15.93;;;7.35;;
60714;SDS011;46564;53.096;8.246;2023-12-04T16:58:46;18.33;;;7.15;;
60714;SDS011;46564;53.096;8.246;2023-12-04T17:03:47;17.73;;;7.93;;
60714;SDS011;46564;53.096;8.246;2023-12-04T17:08:49;14.38;;;6.80;;
60714;SDS011;46564;53.096;8.246;2023-12-04T17:13:50;16.88;;;7.78;;
60714;SDS011;46564;53.096;8.246;2023-12-04T17:18:51;17.52;;;8.20;;
60714;SDS011;46564;53.096;8.246;2023-12-04T17:23:53;14.75;;;6.60;;
60714;SDS011;46564;53.096;8.246;2023-12-04T17:28:54;17.23;;;8.05;;
60714;SDS011;46564;53.096;8.246;2023-12-04T17:33:55;15.32;;;6.53;;
60714;SDS011;46564;53.096;8.246;2023-12-04T17:38:56;14.32;;;6.65;;
60714;SDS011;46564;53.096;8.246;2023-12-04T17:43:58;17.33;;;6.80;;
60714;SDS011;46564;53.096;8.246;2023-12-04T17:48:59;22.30;;;7.35;;
60714;SDS011;46564;53.096;8.246;2023-12-04T17:54:01;16.05;;;7.22;;
60714;SDS011;46564;53.096;8.246;2023-12-04T17:59:02;15.65;;;7.57;;
60714;SDS011;46564;53.096;8.246;2023-12-04T18:04:03;17.00;;;7.60;;
60714;SDS011;46564;53.096;8.246;2023-12-04T18:09:06;17.15;;;7.60;;
60714;SDS011;46564;53.096;8.246;2023-12-04T18:14:07;15.45;;;6.63;;
60714;SDS011;46564;53.096;8.246;2023-12-04T18:19:08;18.10;;;7.38;;
60714;SDS011;46564;53.096;8.246;2023-12-04T18:24:09;16.80;;;7.00;;
60714;SDS011;46564;53.096;8.246;2023-12-04T18:29:11;17.30;;;6.70;;
60714;SDS011;46564;53.096;8.246;2023-12-04T18:34:12;13.45;;;5.90;;
60714;SDS011;46564;53.096;8.246;2023-12-04T18:39:14;17.70;;;7.70;;
60714;SDS011;46564;53.096;8.246;2023-12-04T18:44:16;13.82;;;6.25;;
60714;SDS011;46564;53.096;8.246;2023-12-04T18:49:17;13.18;;;6.65;;
60714;SDS011;46564;53.096;8.246;2023-12-04T18:54:19;14.20;;;6.55;;
60714;SDS011;46564;53.096;8.246;2023-12-04T18:59:20;14.20;;;5.97;;
60714;SDS011;46564;53.096;8.246;2023-12-04T19:04:21;13.65;;;6.40;;
60714;SDS011;46564;53.096;8.246;2023-12-04T19:09:23;14.32;;;6.35;;
60714;SDS011;46564;53.096;8.246;2023-12-04T19:14:24;12.63;;;6.25;;
60714;SDS011;46564;53.096;8.246;2023-12-04T19:19:25;14.57;;;6.03;;
60714;SDS011;46564;53.096;8.246;2023-12-04T19:24:27;15.68;;;6.40;;
60714;SDS011;46564;53.096;8.246;2023-12-04T19:29:29;15.10;;;6.35;;
60714;SDS011;46564;53.096;8.246;2023-12-04T19:34:30;15.88;;;5.88;;
60714;SDS011;46564;53.096;8.246;2023-12-04T19:39:32;13.68;;;6.55;;
60714;SDS011;46564;53.096;8.246;2023-12-04T19:44:33;14.00;;;6.68;;
60714;SDS011;46564;53.096;8.246;2023-12-04T19:49:34;16.75;;;7.00;;
60714;SDS011;46564;53.096;8.246;2023-12-04T19:54:36;12.82;;;6.13;;
60714;SDS011;46564;53.096;8.246;2023-12-04T19:59:41;12.38;;;5.63;;
60714;SDS011;46564;53.096;8.246;2023-12-04T20:04:43;14.27;;;6.50;;
60714;SDS011;46564;53.096;8.246;2023-12-04T20:09:45;15.15;;;6.50;;
60714;SDS011;46564;53.096;8.246;2023-12-04T20:14:46;13.60;;;5.90;;
60714;SDS011;46564;53.096;8.246;2023-12-04T20:19:48;13.85;;;5.88;;
60714;SDS011;46564;53.096;8.246;2023-12-04T20:24:49;14.68;;;6.47;;
60714;SDS011;46564;53.096;8.246;2023-12-04T20:29:50;14.32;;;6.30;;
60714;SDS011;46564;53.096;8.246;2023-12-04T20:34:52;13.57;;;6.30;;
60714;SDS011;46564;53.096;8.246;2023-12-04T20:39:53;12.15;;;5.32;;
60714;SDS011;46564;53.096;8.246;2023-12-04T20:44:54;11.05;;;4.78;;
60714;SDS011;46564;53.096;8.246;2023-12-04T20:49:55;12.80;;;5.13;;
60714;SDS011;46564;53.096;8.246;2023-12-04T20:54:57;13.73;;;5.43;;
60714;SDS011;46564;53.096;8.246;2023-12-04T20:59:58;12.55;;;5.60;;
60714;SDS011;46564;53.096;8.246;2023-12-04T21:05:00;13.05;;;6.25;;
60714;SDS011;46564;53.096;8.246;2023-12-04T21:10:04;12.15;;;6.03;;
60714;SDS011;46564;53.096;8.246;2023-12-04T21:15:06;15.90;;;6.10;;
60714;SDS011;46564;53.096;8.246;2023-12-04T21:20:07;13.30;;;5.80;;
60714;SDS011;46564;53.096;8.246;2023-12-04T21:25:10;12.23;;;5.22;;
60714;SDS011;46564;53.096;8.246;2023-12-04T21:30:12;12.88;;;6.20;;
60714;SDS011;46564;53.096;8.246;2023-12-04T21:35:13;10.23;;;4.25;;
60714;SDS011;46564;53.096;8.246;2023-12-04T21:40:14;13.70;;;6.07;;
60714;SDS011;46564;53.096;8.246;2023-12-04T21:45:16;12.27;;;5.60;;
60714;SDS011;46564;53.096;8.246;2023-12-04T21:50:19;13.98;;;5.68;;
60714;SDS011;46564;53.096;8.246;2023-12-04T21:55:21;12.80;;;5.72;;
60714;SDS011;46564;53.096;8.246;2023-12-04T22:00:22;13.50;;;5.90;;
60714;SDS011;46564;53.096;8.246;2023-12-04T22:05:24;13.18;;;6.13;;
60714;SDS011;46564;53.096;8.246;2023-12-04T22:10:25;12.35;;;5.60;;
60714;SDS011;46564;53.096;8.246;2023-12-04T22:15:26;14.80;;;6.13;;
60714;SDS011;46564;53.096;8.246;2023-12-04T22:20:27;13.98;;;6.15;;
60714;SDS011;46564;53.096;8.246;2023-12-04T22:25:29;13.10;;;6.28;;
60714;SDS011;46564;53.096;8.246;2023-12-04T22:30:30;15.18;;;6.75;;
60714;SDS011;46564;53.096;8.246;2023-12-04T22:35:31;15.07;;;6.32;;
60714;SDS011;46564;53.096;8.246;2023-12-04T22:40:32;15.93;;;6.78;;
60714;SDS011;46564;53.096;8.246;2023-12-04T22:45:34;15.18;;;6.30;;
60714;SDS011;46564;53.096;8.246;2023-12-04T22:50:35;13.70;;;6.55;;
60714;SDS011;46564;53.096;8.246;2023-12-04T22:55:36;15.43;;;6.43;;
60714;SDS011;46564;53.096;8.246;2023-12-04T23:00:38;16.33;;;7.40;;
60714;SDS011;46564;53.096;8.246;2023-12-04T23:05:42;15.70;;;6.45;;
60714;SDS011;46564;53.096;8.246;2023-12-04T23:10:43;18.83;;;7.50;;
60714;SDS011;46564;53.096;8.246;2023-12-04T23:15:45;16.13;;;7.57;;
60714;SDS011;46564;53.096;8.246;2023-12-04T23:20:46;15.38;;;6.80;;
60714;SDS011;46564;53.096;8.246;2023-12-04T23:25:47;17.15;;;7.13;;
60714;SDS011;46564;53.096;8.246;2023-12-04T23:30:49;20.23;;;7.60;;
60714;SDS011;46564;53.096;8.246;2023-12-04T23:35:50;16.08;;;7.40;;
60714;SDS011;46564;53.096;8.246;2023-12-04T23:40:51;17.40;;;8.27;;
60714;SDS011;46564;53.096;8.246;2023-12-04T23:45:52;16.38;;;7.72;;
60714;SDS011;46564;53.096;8.246;2023-12-04T23:50:57;17.23;;;7.53;;
60714;SDS011;46564;53.096;8.246;2023-12-04T23:55:58;19.27;;;9.50;;
